Time;durP1;ratioP1;P1;durP2;ratioP2;P2;SDS_P1;SDS_P2;PMS_P1;PMS_P2;Temp;Humidity;BMP_temperature;BMP_pressure;BME280_temperature;BME280_humidity;BME280_pressure;Samples;Min_cycle;Max_cycle;Signal;HPM_P1;HPM_P2
2024/01/02 00:00:01;;;;;;;11.00;1.83;;;8.20;99.90;;;8.49;77.42;99258.88;5020029;28;20046;-85
2024/01/02 00:02:29;;;;;;;9.68;1.92;;;8.20;99.90;;;8.54;77.47;99249.41;5019067;28;20065;-85
2024/01/02 00:04:57;;;;;;;8.38;1.92;;;8.30;99.90;;;8.54;77.54;99230.78;5020552;28;20112;-85
2024/01/02 00:07:26;;;;;;;12.93;2.22;;;8.30;99.90;;;8.54;77.57;99230.78;5020779;28;20045;-85
2024/01/02 00:09:54;;;;;;;12.43;2.15;;;8.20;99.90;;;8.54;77.84;99218.34;5018694;28;20052;-85
2024/01/02 00:12:22;;;;;;;11.35;1.83;;;8.30;99.90;;;8.55;77.85;99206.69;5020279;28;20052;-85
2024/01/02 00:14:50;;;;;;;10.07;1.83;;;8.30;99.90;;;8.45;77.53;99212.56;5020273;28;20112;-85
2024/01/02 00:17:17;;;;;;;9.07;2.00;;;8.20;99.90;;;8.48;78.04;99209.41;5021130;28;20454;-85
2024/01/02 00:19:46;;;;;;;8.70;1.70;;;8.20;99.90;;;8.47;77.91;99201.69;5016338;28;20465;-85
2024/01/02 00:22:14;;;;;;;8.60;1.77;;;8.20;99.90;;;8.47;77.86;99191.06;5019226;28;20045;-85
2024/01/02 00:24:41;;;;;;;10.95;2.00;;;8.20;99.90;;;8.49;77.70;99183.66;5019105;28;20046;-85
2024/01/02 00:27:12;;;;;;;9.80;1.70;;;8.20;99.90;;;8.46;78.04;99171.66;5018548;28;20145;-85
2024/01/02 00:29:39;;;;;;;7.30;1.58;;;8.20;99.90;;;8.46;77.86;99170.84;5018463;28;20053;-85
2024/01/02 00:32:07;;;;;;;9.45;1.67;;;8.20;99.90;;;8.48;77.82;99158.13;4985394;28;20057;-85
2024/01/02 00:34:35;;;;;;;10.85;2.00;;;8.30;99.90;;;8.43;77.80;99158.00;5020064;28;20448;-85
2024/01/02 00:37:04;;;;;;;10.13;1.48;;;8.20;99.90;;;8.48;78.14;99153.63;5018842;28;20046;-85
2024/01/02 00:39:32;;;;;;;10.05;2.15;;;8.30;99.90;;;8.50;78.28;99151.56;5003476;28;20464;-85
2024/01/02 00:41:59;;;;;;;7.85;1.42;;;8.30;99.90;;;8.49;78.41;99134.00;5018845;28;20056;-85
2024/01/02 00:44:27;;;;;;;10.55;2.10;;;8.30;99.90;;;8.53;78.42;99139.66;5020800;28;20184;-85
2024/01/02 00:46:54;;;;;;;6.57;1.85;;;8.30;99.90;;;8.43;78.46;99118.16;5001943;28;20042;-85
2024/01/02 00:49:22;;;;;;;6.63;1.52;;;8.30;99.90;;;8.43;78.52;99123.47;5002421;28;20445;-85
2024/01/02 00:51:49;;;;;;;9.57;1.50;;;8.30;99.90;;;8.44;78.66;99122.44;5020700;28;20428;-85
2024/01/02 00:54:18;;;;;;;6.15;1.50;;;8.20;99.90;;;8.46;78.62;99104.44;5021390;28;20056;-85
2024/01/02 00:56:46;;;;;;;5.25;1.27;;;8.30;99.90;;;8.48;78.54;99097.81;5019350;28;20042;-85
2024/01/02 00:59:16;;;;;;;8.93;2.20;;;8.30;99.90;;;8.48;78.46;99089.84;5018470;28;20038;-85
2024/01/02 01:01:44;;;;;;;6.60;1.77;;;8.40;99.90;;;8.47;78.57;99082.94;5018182;28;20060;-85
2024/01/02 01:04:11;;;;;;;5.03;1.38;;;8.30;99.90;;;8.45;78.87;99078.91;5017432;28;20049;-85
2024/01/02 01:06:40;;;;;;;8.00;1.67;;;8.20;99.90;;;8.41;78.90;99083.06;5017614;28;20129;-85
2024/01/02 01:09:08;;;;;;;7.03;1.70;;;8.20;99.90;;;8.39;79.17;99069.97;5001416;28;20437;-85
2024/01/02 01:11:37;;;;;;;9.68;1.65;;;8.20;99.90;;;8.44;79.30;99063.97;5018906;28;20525;-85
2024/01/02 01:14:05;;;;;;;9.23;2.35;;;8.20;99.90;;;8.38;79.14;99062.25;4984961;28;20050;-85
2024/01/02 01:16:33;;;;;;;10.52;1.40;;;8.20;99.90;;;8.39;79.54;99047.94;5018105;28;20070;-85
2024/01/02 01:19:00;;;;;;;8.43;1.70;;;8.30;99.90;;;8.38;79.61;99031.19;5017046;28;20097;-85
2024/01/02 01:21:27;;;;;;;9.00;1.50;;;8.20;99.90;;;8.38;79.65;99027.72;5001067;28;20077;-85
2024/01/02 01:23:55;;;;;;;5.63;1.48;;;8.20;99.90;;;8.29;79.83;99026.44;5018363;28;20042;-85
2024/01/02 01:26:23;;;;;;;7.35;1.60;;;8.20;99.90;;;8.35;80.11;99017.56;5017248;28;20042;-85
2024/01/02 01:28:52;;;;;;;5.82;1.67;;;8.20;99.90;;;8.40;80.02;99007.88;4968440;28;20046;-85
2024/01/02 01:31:19;;;;;;;7.65;2.08;;;8.20;99.90;;;8.44;79.89;99006.38;4980914;28;20046;-85
2024/01/02 01:33:47;;;;;;;13.43;1.70;;;8.20;99.90;;;8.43;79.84;98991.44;5014453;28;20045;-85
2024/01/02 01:36:14;;;;;;;6.22;1.20;;;8.20;99.90;;;8.44;79.82;98982.47;4984705;28;20073;-85
2024/01/02 01:38:42;;;;;;;6.72;1.60;;;8.30;99.90;;;8.45;79.89;98977.94;5018372;28;20050;-85
2024/01/02 01:41:09;;;;;;;6.95;1.70;;;8.30;99.90;;;8.39;80.31;98973.56;5002372;28;20126;-85
2024/01/02 01:43:37;;;;;;;6.32;1.38;;;8.20;99.90;;;8.33;80.37;98963.84;5018870;28;20101;-85
2024/01/02 01:46:08;;;;;;;6.78;1.40;;;8.20;99.90;;;8.34;80.62;98949.50;4986308;28;20037;-85
2024/01/02 01:48:36;;;;;;;8.25;1.50;;;8.20;99.90;;;8.37;81.01;98949.09;5017424;28;20054;-85
2024/01/02 01:51:04;;;;;;;5.57;1.48;;;8.20;99.90;;;8.41;80.79;98939.59;5017993;28;20488;-85
2024/01/02 01:53:32;;;;;;;5.43;1.30;;;8.20;99.90;;;8.37;80.68;98941.13;4981591;28;20501;-85
2024/01/02 01:56:00;;;;;;;5.80;1.27;;;8.20;99.90;;;8.40;80.67;98930.84;4980846;28;20141;-85
2024/01/02 01:58:28;;;;;;;8.00;1.35;;;8.20;99.90;;;8.34;80.75;98929.06;4996996;28;20572;-85
2024/01/02 02:00:58;;;;;;;8.52;1.50;;;8.20;99.90;;;8.26;80.60;98927.59;4984660;28;20045;-85
2024/01/02 02:03:28;;;;;;;8.57;1.42;;;8.20;99.90;;;8.24;80.99;98896.97;4976902;28;20506;-85
2024/01/02 02:05:56;;;;;;;6.50;1.52;;;8.20;99.90;;;8.31;81.26;98892.38;4979737;28;20181;-85
2024/01/02 02:08:24;;;;;;;5.28;1.42;;;8.20;99.90;;;8.32;81.31;98891.31;4964279;28;20066;-85
2024/01/02 02:10:52;;;;;;;4.40;1.52;;;8.20;99.90;;;8.30;81.53;98876.66;4980859;28;20539;-85
2024/01/02 02:13:21;;;;;;;6.28;1.30;;;8.20;99.90;;;8.26;81.58;98858.53;4997008;28;20049;-85
2024/01/02 02:15:49;;;;;;;6.38;1.70;;;8.20;99.90;;;8.28;81.70;98842.38;4980778;28;20058;-85
2024/01/02 02:18:16;;;;;;;4.30;1.27;;;8.10;99.90;;;8.35;81.56;98835.06;4993913;28;20047;-85
2024/01/02 02:20:46;;;;;;;8.90;1.90;;;8.20;99.90;;;8.34;81.66;98845.91;4991282;28;20069;-84
2024/01/02 02:23:15;;;;;;;6.43;1.88;;;8.10;99.90;;;8.33;81.75;98828.38;4990679;28;20042;-85
2024/01/02 02:25:43;;;;;;;5.82;1.95;;;8.20;99.90;;;8.30;81.25;98812.94;4997066;28;20050;-85
2024/01/02 02:28:13;;;;;;;9.18;1.95;;;8.10;99.90;;;8.31;81.72;98814.53;4997153;28;20042;-85
2024/01/02 02:30:40;;;;;;;6.68;2.25;;;8.10;99.90;;;8.33;81.86;98807.94;5005032;28;20060;-85
2024/01/02 02:33:07;;;;;;;4.63;1.88;;;8.10;99.90;;;8.36;81.59;98794.22;5019378;28;20073;-85
2024/01/02 02:35:35;;;;;;;3.83;2.00;;;8.20;99.90;;;8.40;81.41;98799.88;5020012;28;20097;-85
2024/01/02 02:38:02;;;;;;;5.55;1.92;;;8.20;99.90;;;8.41;81.11;98786.34;5021009;28;20092;-85
2024/01/02 02:40:31;;;;;;;4.80;1.70;;;8.20;99.90;;;8.14;80.92;98778.09;5018974;28;20440;-85
2024/01/02 02:42:58;;;;;;;5.45;1.58;;;8.10;99.90;;;8.11;81.40;98760.00;5020118;28;20045;-85
2024/01/02 02:45:27;;;;;;;5.15;1.50;;;8.10;99.90;;;8.19;81.57;98743.66;5020775;28;20563;-85
2024/01/02 02:47:55;;;;;;;3.78;1.10;;;8.10;99.90;;;8.27;81.63;98731.88;5020396;28;20042;-85
2024/01/02 02:50:25;;;;;;;5.03;1.15;;;8.20;99.90;;;8.14;81.04;98721.53;5019761;28;20509;-85
2024/01/02 02:52:52;;;;;;;3.47;1.00;;;8.10;99.90;;;8.15;81.01;98708.03;5018889;28;20123;-85
2024/01/02 02:55:20;;;;;;;2.42;0.70;;;8.10;99.90;;;8.17;80.81;98692.66;5020743;28;20046;-85
2024/01/02 02:57:48;;;;;;;3.08;0.90;;;8.10;99.90;;;8.18;81.27;98685.50;5020481;28;20045;-85
2024/01/02 03:00:16;;;;;;;2.05;0.60;;;8.10;99.90;;;8.12;80.00;98662.56;5020561;28;20498;-85
2024/01/02 03:02:44;;;;;;;2.45;0.80;;;8.10;99.90;;;8.14;80.97;98655.97;5020051;28;20065;-85
2024/01/02 03:05:11;;;;;;;2.88;0.80;;;8.10;99.90;;;8.05;80.51;98649.44;5019392;28;20064;-85
2024/01/02 03:07:41;;;;;;;2.28;0.65;;;8.00;99.90;;;8.11;80.91;98650.34;5019786;28;20108;-85
2024/01/02 03:10:10;;;;;;;3.78;0.65;;;8.10;99.90;;;8.20;81.21;98647.06;5019409;28;20100;-85
2024/01/02 03:12:37;;;;;;;5.28;1.13;;;8.10;99.90;;;8.21;80.88;98630.06;5018831;28;20056;-85
2024/01/02 03:15:08;;;;;;;2.20;0.80;;;8.10;99.90;;;8.26;80.97;98618.72;5019054;28;20038;-85
2024/01/02 03:17:36;;;;;;;2.67;0.60;;;8.10;99.90;;;8.03;80.89;98614.34;5019066;28;20030;-85
2024/01/02 03:20:04;;;;;;;2.00;0.70;;;8.10;99.90;;;8.05;81.47;98612.25;5003045;28;20117;-85
2024/01/02 03:22:31;;;;;;;3.20;0.60;;;8.00;99.90;;;8.04;81.35;98597.38;5018612;28;20041;-85
2024/01/02 03:24:58;;;;;;;1.38;0.57;;;8.00;99.90;;;7.97;81.20;98594.09;5017687;28;20060;-85
2024/01/02 03:27:26;;;;;;;2.10;0.52;;;8.00;99.90;;;7.98;80.92;98580.56;5020112;28;20088;-85
2024/01/02 03:29:53;;;;;;;1.63;0.50;;;8.10;99.90;;;8.07;80.92;98585.50;5019548;28;20068;-85
2024/01/02 03:32:22;;;;;;;3.00;0.50;;;8.00;99.90;;;8.06;80.41;98582.03;5019835;28;20041;-84
2024/01/02 03:34:50;;;;;;;1.30;0.50;;;8.00;99.90;;;7.87;81.23;98560.22;5019938;28;20108;-85
2024/01/02 03:37:18;;;;;;;0.77;0.40;;;8.00;99.90;;;8.00;81.43;98559.09;5018885;28;20038;-84
2024/01/02 03:39:45;;;;;;;1.70;0.60;;;8.00;99.90;;;8.01;81.66;98547.44;5018649;28;20096;-85
2024/01/02 03:42:13;;;;;;;0.95;0.43;;;8.00;99.90;;;7.84;81.93;98534.16;5019470;28;20052;-85
2024/01/02 03:44:40;;;;;;;1.27;0.40;;;8.00;99.90;;;7.78;82.12;98535.13;5018467;28;20077;-85
2024/01/02 03:47:07;;;;;;;0.85;0.47;;;8.00;99.90;;;7.82;82.62;98520.34;5019068;28;20556;-85
2024/01/02 03:49:36;;;;;;;1.63;0.50;;;7.90;99.90;;;7.81;83.13;98510.78;5018395;28;20050;-85
2024/01/02 03:52:04;;;;;;;0.80;0.50;;;7.90;99.90;;;7.87;82.99;98483.25;5019007;28;20096;-84
2024/01/02 03:54:31;;;;;;;1.10;0.40;;;8.00;99.90;;;7.89;82.95;98485.66;5018462;28;20437;-85
2024/01/02 03:56:58;;;;;;;2.22;0.50;;;8.00;99.90;;;7.90;83.10;98487.25;5018529;28;20493;-85
2024/01/02 03:59:26;;;;;;;1.40;0.40;;;8.00;99.90;;;8.02;83.09;98474.72;5017128;28;20512;-85
2024/01/02 04:01:54;;;;;;;3.28;0.60;;;8.00;99.90;;;7.97;82.89;98469.34;5018090;28;20505;-85
2024/01/02 04:04:21;;;;;;;2.78;0.50;;;8.00;99.90;;;8.06;82.78;98449.28;5018744;28;20046;-85
2024/01/02 04:06:53;;;;;;;0.68;0.40;;;8.00;99.90;;;7.91;82.87;98447.22;5017266;28;20042;-84
2024/01/02 04:09:20;;;;;;;1.60;0.50;;;8.00;99.90;;;7.94;83.07;98432.66;5019549;28;20050;-85
2024/01/02 04:11:49;;;;;;;1.80;0.50;;;8.00;99.90;;;7.95;83.28;98428.94;5019395;28;20073;-85
2024/01/02 04:14:17;;;;;;;1.23;0.50;;;8.00;99.90;;;7.97;83.29;98410.94;5018790;28;20038;-85
2024/01/02 04:16:44;;;;;;;1.35;0.50;;;8.00;99.90;;;7.88;83.65;98417.72;5018637;28;20509;-85
2024/01/02 04:19:11;;;;;;;2.75;0.60;;;8.00;99.90;;;7.93;83.94;98407.16;5019070;28;20057;-84
2024/01/02 04:21:39;;;;;;;0.95;0.40;;;8.00;99.90;;;7.93;84.07;98399.22;5019263;28;20077;-85
2024/01/02 04:24:08;;;;;;;1.67;0.50;;;8.00;99.90;;;8.03;84.22;98378.09;5003023;28;20041;-84
2024/01/02 04:26:35;;;;;;;1.35;0.40;;;8.10;99.90;;;8.08;83.58;98362.25;5021062;28;20046;-85
2024/01/02 04:29:05;;;;;;;0.60;0.40;;;8.10;99.90;;;8.02;83.77;98352.63;5020673;28;20066;-84
2024/01/02 04:31:32;;;;;;;1.88;0.60;;;8.10;99.90;;;8.11;84.15;98345.81;5022198;28;20144;-84
2024/01/02 04:34:00;;;;;;;0.88;0.43;;;8.10;99.90;;;8.01;84.14;98353.66;5022115;28;20052;-84
2024/01/02 04:36:27;;;;;;;0.60;0.40;;;8.10;99.90;;;7.98;84.52;98339.03;5022392;28;20103;-84
2024/01/02 04:38:54;;;;;;;1.08;0.40;;;8.10;99.90;;;8.10;84.59;98338.91;5021225;28;20493;-84
2024/01/02 04:41:23;;;;;;;3.08;0.60;;;8.10;99.90;;;8.08;84.64;98322.41;5019576;28;20042;-84
2024/01/02 04:43:50;;;;;;;1.08;0.40;;;8.10;99.90;;;8.09;84.73;98313.41;5020809;28;20113;-85
2024/01/02 04:46:18;;;;;;;1.40;0.50;;;8.10;99.90;;;8.06;84.70;98303.28;5022011;28;20038;-84
2024/01/02 04:48:47;;;;;;;2.35;0.50;;;8.10;99.90;;;8.12;84.84;98331.50;5020443;28;20037;-84
2024/01/02 04:51:15;;;;;;;1.40;0.50;;;8.20;99.90;;;8.17;84.83;98323.59;5021046;28;20477;-84
2024/01/02 04:53:42;;;;;;;0.90;0.43;;;8.20;99.90;;;8.20;84.83;98317.78;5021709;28;20417;-85
2024/01/02 04:56:10;;;;;;;0.82;0.40;;;8.20;99.90;;;8.22;85.02;98307.72;5022288;28;20061;-84
2024/01/02 04:58:38;;;;;;;0.57;0.30;;;8.20;99.90;;;8.16;85.22;98306.06;5022014;28;20061;-85
2024/01/02 05:01:06;;;;;;;2.25;0.40;;;8.20;99.90;;;8.12;85.21;98289.03;5020413;28;20521;-85
2024/01/02 05:03:33;;;;;;;0.70;0.40;;;8.20;99.90;;;8.10;86.17;98277.88;5021793;28;20046;-85
2024/01/02 05:06:01;;;;;;;0.60;0.38;;;8.20;99.90;;;8.00;86.75;98270.59;5019784;28;20041;-85
2024/01/02 05:08:28;;;;;;;1.58;0.50;;;8.20;99.90;;;8.07;87.15;98275.69;5021539;28;20041;-85
2024/01/02 05:10:55;;;;;;;2.10;0.50;;;8.20;99.90;;;8.16;87.22;98297.28;5021194;28;20067;-83
2024/01/02 05:13:23;;;;;;;0.90;0.40;;;8.20;99.90;;;8.21;87.09;98292.84;5021162;28;20053;-84
2024/01/02 05:15:51;;;;;;;1.02;0.50;;;8.30;99.90;;;8.26;86.97;98294.75;5020499;28;20056;-84
2024/01/02 05:18:19;;;;;;;0.93;0.40;;;8.30;99.90;;;8.20;87.63;98291.25;5013925;28;20038;-84
2024/01/02 05:20:47;;;;;;;1.15;0.40;;;8.30;99.90;;;8.18;87.77;98293.31;5007775;28;20477;-86
2024/01/02 05:23:14;;;;;;;1.25;0.40;;;8.30;99.90;;;8.23;87.97;98305.84;5017781;28;20056;-85
2024/01/02 05:25:42;;;;;;;0.50;0.40;;;8.30;99.90;;;8.32;87.84;98303.56;5020431;28;20066;-85
2024/01/02 05:28:09;;;;;;;1.85;0.40;;;8.40;99.90;;;8.25;88.16;98296.59;5019747;28;20050;-84
2024/01/02 05:30:37;;;;;;;0.95;0.40;;;8.30;99.90;;;8.31;88.30;98291.34;5019285;28;20045;-84
2024/01/02 05:33:06;;;;;;;0.88;0.40;;;8.30;99.90;;;8.35;88.10;98287.13;5018498;28;20042;-84
2024/01/02 05:35:33;;;;;;;2.55;0.40;;;8.40;99.90;;;8.31;88.41;98281.53;5018244;28;20072;-84
2024/01/02 05:38:02;;;;;;;1.33;0.40;;;8.40;99.90;;;8.35;88.48;98273.88;5015892;28;20046;-84
2024/01/02 05:40:29;;;;;;;2.15;0.80;;;8.40;99.90;;;8.37;88.59;98267.25;5018894;28;20068;-84
2024/01/02 05:42:56;;;;;;;0.60;0.40;;;8.40;99.90;;;8.31;89.55;98268.25;5019619;28;20045;-86
2024/01/02 05:45:24;;;;;;;0.55;0.40;;;8.40;99.90;;;8.33;89.90;98274.09;4984164;28;20398;-84
2024/01/02 05:47:51;;;;;;;0.73;0.40;;;8.40;99.90;;;8.36;90.03;98278.13;5018919;28;20038;-84
2024/01/02 05:50:20;;;;;;;0.52;0.40;;;8.50;99.90;;;8.38;90.44;98281.34;5017700;28;20042;-84
2024/01/02 05:52:47;;;;;;;1.13;0.50;;;8.50;99.90;;;8.42;90.41;98271.81;5020740;28;20065;-84
2024/01/02 05:55:15;;;;;;;2.00;0.60;;;8.50;99.90;;;8.41;90.50;98272.88;5014872;28;20560;-85
2024/01/02 05:57:42;;;;;;;2.40;0.60;;;8.50;99.90;;;8.38;91.20;98268.88;5017777;28;20045;-85
2024/01/02 06:00:10;;;;;;;1.33;0.60;;;8.50;99.90;;;8.37;91.91;98279.75;5020183;28;20100;-85
2024/01/02 06:02:38;;;;;;;1.73;0.57;;;8.50;99.90;;;8.42;92.00;98274.47;5020488;28;20140;-85
2024/01/02 06:05:07;;;;;;;1.65;0.50;;;8.50;99.90;;;8.47;91.79;98280.63;5018754;28;20070;-85
2024/01/02 06:07:35;;;;;;;1.50;0.60;;;8.60;99.90;;;8.48;91.65;98270.81;5019776;28;20390;-85
2024/01/02 06:10:03;;;;;;;1.25;0.50;;;8.60;99.90;;;8.50;91.91;98282.00;5020263;28;20060;-85
2024/01/02 06:12:30;;;;;;;1.58;0.60;;;8.60;99.90;;;8.52;92.32;98271.91;5020270;28;20068;-85
2024/01/02 06:14:58;;;;;;;1.27;0.57;;;8.60;99.90;;;8.45;93.15;98248.22;5020325;28;20149;-85
2024/01/02 06:17:25;;;;;;;1.23;0.50;;;8.60;99.90;;;8.46;93.56;98257.00;5019571;28;20121;-85
2024/01/02 06:19:52;;;;;;;1.35;0.57;;;8.60;99.90;;;8.46;94.13;98257.00;5020775;28;20145;-85
2024/01/02 06:22:20;;;;;;;1.50;0.60;;;8.60;99.90;;;8.48;94.56;98273.47;5016468;28;20053;-87
2024/01/02 06:24:49;;;;;;;1.17;0.60;;;8.70;99.90;;;8.57;94.36;98276.47;5016305;28;20060;-87
2024/01/02 06:27:16;;;;;;;1.13;0.70;;;8.70;99.90;;;8.58;94.29;98249.66;5016880;28;20060;-89
2024/01/02 06:29:44;;;;;;;1.50;0.60;;;8.70;99.90;;;8.64;94.44;98263.81;5013354;28;20128;-88
2024/01/02 06:32:11;;;;;;;1.35;0.73;;;8.70;99.90;;;8.68;94.54;98263.00;5014448;28;20065;-88
2024/01/02 06:34:38;;;;;;;2.63;1.08;;;8.80;99.90;;;8.68;95.15;98263.00;5014563;28;20066;-88
2024/01/02 06:37:06;;;;;;;2.95;1.00;;;8.80;99.90;;;8.69;95.98;98256.66;5013160;28;20044;-88
2024/01/02 06:39:34;;;;;;;2.15;1.05;;;8.80;99.90;;;8.68;96.89;98257.69;5014356;28;20048;-88
2024/01/02 06:42:03;;;;;;;2.30;1.30;;;8.90;99.90;;;8.69;97.07;98275.28;5012791;28;20038;-88
2024/01/02 06:44:31;;;;;;;2.60;1.50;;;8.90;99.90;;;8.73;97.15;98283.53;5013981;28;20046;-88
2024/01/02 06:46:58;;;;;;;3.95;1.70;;;8.90;99.90;;;8.79;97.26;98295.81;5012534;28;20045;-89
2024/01/02 06:49:26;;;;;;;2.80;1.70;;;8.90;99.90;;;8.81;97.70;98279.59;5012681;28;20410;-90
2024/01/02 06:51:53;;;;;;;2.83;1.65;;;9.00;99.90;;;8.84;97.82;98287.88;5012645;28;20057;-87
2024/01/02 06:54:21;;;;;;;3.72;2.08;;;9.00;99.90;;;8.91;97.88;98274.38;5012603;28;20062;-86
2024/01/02 06:56:48;;;;;;;2.90;1.80;;;9.00;99.90;;;8.97;98.14;98273.34;5014199;28;20073;-88
2024/01/02 06:59:16;;;;;;;3.38;1.95;;;9.10;99.90;;;8.97;98.42;98276.81;5014312;28;20097;-85
2024/01/02 07:01:44;;;;;;;3.60;2.30;;;9.20;99.90;;;9.01;98.78;98277.91;5014020;28;20104;-82
2024/01/02 07:04:12;;;;;;;4.88;2.58;;;9.10;99.90;;;9.04;99.58;98281.91;5013842;28;20042;-84
2024/01/02 07:06:39;;;;;;;3.30;2.30;;;9.00;99.90;;;9.08;100.00;98296.31;5012711;28;20045;-83
2024/01/02 07:09:06;;;;;;;4.00;2.42;;;9.30;99.90;;;9.11;100.00;98289.66;5013685;28;20054;-84
2024/01/02 07:11:34;;;;;;;3.90;2.35;;;9.30;99.90;;;9.16;100.00;98289.69;5013663;28;20100;-83
2024/01/02 07:14:01;;;;;;;3.97;2.55;;;9.30;99.90;;;9.23;100.00;98295.63;5013564;28;20049;-83
2024/01/02 07:16:32;;;;;;;3.35;1.95;;;9.40;99.90;;;9.27;100.00;98299.34;5013416;28;20117;-83
2024/01/02 07:18:59;;;;;;;3.10;2.10;;;9.40;99.90;;;9.31;100.00;98287.13;5006391;28;20514;-84
2024/01/02 07:21:26;;;;;;;3.72;2.33;;;9.50;99.90;;;9.37;100.00;98290.63;5013706;28;20116;-84
2024/01/02 07:23:54;;;;;;;3.47;2.20;;;9.50;99.90;;;9.40;100.00;98288.25;5017747;28;20497;-84
2024/01/02 07:26:21;;;;;;;3.67;2.00;;;9.50;99.90;;;9.44;100.00;98286.69;5017476;28;20042;-84
2024/01/02 07:28:48;;;;;;;3.65;2.10;;;9.60;99.90;;;9.50;100.00;98287.53;5010220;28;20101;-84
2024/01/02 07:31:16;;;;;;;4.65;1.90;;;9.70;99.90;;;9.55;100.00;98269.72;5017713;28;20056;-84
2024/01/02 07:33:45;;;;;;;4.22;2.35;;;9.70;99.90;;;9.61;100.00;98286.50;5002038;28;20046;-83
2024/01/02 07:36:12;;;;;;;4.75;1.80;;;9.80;99.90;;;9.63;100.00;98292.38;5005616;28;20097;-84
2024/01/02 07:38:39;;;;;;;2.83;1.70;;;9.80;99.90;;;9.67;100.00;98290.81;5014453;28;20138;-84
2024/01/02 07:41:07;;;;;;;2.95;1.67;;;9.90;99.90;;;9.71;100.00;98283.91;5014300;28;20080;-84
2024/01/02 07:43:34;;;;;;;2.72;1.50;;;9.90;99.90;;;9.74;100.00;98298.56;5014315;28;20041;-84
2024/01/02 07:46:03;;;;;;;2.80;1.50;;;9.90;99.90;;;9.77;100.00;98301.50;5013885;28;20046;-83
2024/01/02 07:48:31;;;;;;;3.00;1.60;;;10.00;99.90;;;9.80;100.00;98302.84;5012858;28;20042;-84
2024/01/02 07:50:59;;;;;;;3.83;1.40;;;10.00;99.90;;;9.83;100.00;98299.66;5013441;28;20050;-84
2024/01/02 07:53:27;;;;;;;4.13;1.55;;;10.00;99.90;;;9.88;100.00;98306.88;5014246;28;20508;-84
2024/01/02 07:55:54;;;;;;;3.85;1.63;;;10.10;99.90;;;9.90;100.00;98310.88;5013687;28;20104;-84
2024/01/02 07:58:21;;;;;;;4.15;1.77;;;10.10;99.90;;;9.94;100.00;98313.81;5013230;28;20034;-84
2024/01/02 08:00:49;;;;;;;2.70;1.40;;;10.10;99.90;;;9.96;100.00;98317.03;5015727;28;20050;-84
2024/01/02 08:03:17;;;;;;;4.22;1.77;;;10.20;99.90;;;9.98;100.00;98325.56;5017292;28;20056;-84
2024/01/02 08:05:45;;;;;;;3.03;1.40;;;10.10;99.90;;;9.99;100.00;98327.94;5015656;28;20046;-84
2024/01/02 08:08:14;;;;;;;3.17;1.40;;;10.20;99.90;;;10.01;100.00;98339.16;5016741;28;20037;-84
2024/01/02 08:10:41;;;;;;;2.83;1.20;;;10.20;99.90;;;10.05;100.00;98336.75;5017013;28;20042;-84
2024/01/02 08:13:09;;;;;;;3.33;1.10;;;10.20;99.90;;;10.07;100.00;98345.31;5017121;28;20049;-84
2024/01/02 08:15:36;;;;;;;2.30;1.27;;;10.20;99.90;;;10.10;100.00;98343.97;5016894;28;20044;-84
2024/01/02 08:18:04;;;;;;;2.40;1.40;;;10.30;99.90;;;10.11;100.00;98350.91;5013735;28;20109;-84
2024/01/02 08:20:32;;;;;;;3.15;1.40;;;10.30;99.90;;;10.13;100.00;98354.09;5004967;28;20164;-85
2024/01/02 08:22:59;;;;;;;3.05;1.20;;;10.30;99.90;;;10.14;100.00;98350.38;5015792;28;20104;-84
2024/01/02 08:25:28;;;;;;;2.80;1.40;;;10.30;99.90;;;10.17;100.00;98355.19;5017716;28;20042;-84
2024/01/02 08:27:55;;;;;;;2.67;1.40;;;10.30;99.90;;;10.20;100.00;98359.97;5017598;28;20042;-84
2024/01/02 08:30:22;;;;;;;3.10;1.20;;;10.30;99.90;;;10.21;100.00;98359.75;5017067;28;20041;-85
2024/01/02 08:32:50;;;;;;;2.13;1.13;;;10.40;99.90;;;10.21;100.00;98359.75;5016983;28;20033;-84
2024/01/02 08:35:18;;;;;;;3.75;1.30;;;10.40;99.90;;;10.25;100.00;98368.06;5017273;28;20046;-84
2024/01/02 08:37:45;;;;;;;2.63;1.13;;;10.40;99.90;;;10.25;100.00;98371.53;5017327;28;20042;-84
2024/01/02 08:40:13;;;;;;;2.35;1.20;;;10.40;99.90;;;10.26;100.00;98372.31;5017219;28;20045;-84
2024/01/02 08:42:42;;;;;;;3.22;1.80;;;10.50;99.90;;;10.28;100.00;98380.84;5017192;28;20113;-84
2024/01/02 08:45:10;;;;;;;3.38;1.70;;;10.40;99.90;;;10.29;100.00;98391.22;5017287;28;20119;-84
2024/01/02 08:47:41;;;;;;;5.45;1.52;;;10.50;99.90;;;10.29;100.00;98391.22;5017298;28;20046;-85
2024/01/02 08:50:10;;;;;;;3.97;1.73;;;10.50;99.90;;;10.32;100.00;98398.72;5015944;28;20421;-85
2024/01/02 08:52:37;;;;;;;2.67;1.55;;;10.50;99.90;;;10.34;100.00;98395.78;5016991;28;20034;-85
2024/01/02 08:55:05;;;;;;;3.45;1.52;;;10.50;99.90;;;10.32;100.00;98396.03;5017329;28;20567;-85
2024/01/02 08:57:33;;;;;;;3.38;1.60;;;10.50;99.90;;;10.36;100.00;98392.88;5016597;28;20045;-85
2024/01/02 09:00:02;;;;;;;3.05;1.75;;;10.50;99.90;;;10.37;100.00;98407.78;5016468;28;20073;-85
2024/01/02 09:02:29;;;;;;;9.65;3.90;;;10.50;99.90;;;10.38;100.00;98402.19;5017237;28;20073;-84
2024/01/02 09:04:57;;;;;;;11.57;4.60;;;10.50;99.90;;;10.40;100.00;98399.28;5017297;28;20076;-85
2024/01/02 09:07:24;;;;;;;10.85;4.60;;;10.60;99.90;;;10.42;100.00;98402.47;5016841;28;20057;-85
2024/01/02 09:09:51;;;;;;;10.43;4.00;;;10.60;99.90;;;10.44;100.00;98387.00;5016829;28;20520;-84
2024/01/02 09:12:19;;;;;;;3.45;2.05;;;10.60;99.90;;;10.44;100.00;98392.34;5016557;28;20065;-84
2024/01/02 09:14:46;;;;;;;4.90;2.40;;;10.60;99.90;;;10.47;100.00;98399.81;5016874;28;20038;-85
2024/01/02 09:17:15;;;;;;;4.47;2.30;;;10.60;99.90;;;10.49;100.00;98395.84;5015196;28;20084;-85
2024/01/02 09:19:44;;;;;;;4.13;2.42;;;10.60;99.90;;;10.51;100.00;98395.59;5006417;28;20510;-85
2024/01/02 09:22:11;;;;;;;6.07;3.90;;;10.70;99.90;;;10.50;100.00;98386.78;5016641;28;20037;-84
2024/01/02 09:24:39;;;;;;;6.57;3.22;;;10.70;99.90;;;10.54;100.00;98392.38;5016715;28;20112;-84
2024/01/02 09:27:09;;;;;;;5.50;3.25;;;10.70;99.90;;;10.55;100.00;98391.34;5016740;28;20046;-85
2024/01/02 09:29:36;;;;;;;5.75;3.17;;;10.70;99.90;;;10.55;100.00;98380.69;5016153;28;20046;-84
2024/01/02 09:32:04;;;;;;;5.03;3.08;;;10.70;99.90;;;10.57;100.00;98391.88;5016342;28;20052;-84
2024/01/02 09:34:33;;;;;;;4.30;2.80;;;10.80;99.90;;;10.56;100.00;98388.41;5016373;28;20088;-84
2024/01/02 09:37:00;;;;;;;5.47;3.47;;;10.70;99.90;;;10.58;100.00;98385.47;5016788;28;20049;-85
2024/01/02 09:39:28;;;;;;;7.03;3.47;;;10.70;99.90;;;10.60;100.00;98383.34;5016504;28;20121;-84
2024/01/02 09:42:20;;;;;;;8.18;3.90;;;10.70;99.90;;;10.62;100.00;98381.22;5014951;28;20050;-84
2024/01/02 09:45:03;;;;;;;7.72;3.40;;;10.80;99.90;;;10.63;100.00;98372.16;5015356;28;20065;-84
2024/01/02 09:48:08;;;;;;;5.82;3.17;;;10.80;99.90;;;10.64;100.00;98383.59;5014694;28;20049;-84
2024/01/02 09:50:48;;;;;;;3.92;2.60;;;10.80;99.90;;;10.65;100.00;98383.38;5002264;28;20046;-84
2024/01/02 09:53:41;;;;;;;4.95;2.70;;;10.80;99.90;;;10.67;100.00;98378.56;5014962;28;20053;-84
2024/01/02 09:56:17;;;;;;;5.60;2.60;;;10.80;99.90;;;10.67;100.00;98362.56;4999362;28;20049;-84
2024/01/02 09:58:56;;;;;;;4.05;2.55;;;10.80;99.90;;;10.66;100.00;98363.63;5014878;28;20034;-84
2024/01/02 10:01:33;;;;;;;5.90;2.80;;;10.80;99.90;;;10.69;100.00;98365.00;5014837;28;20045;-84
2024/01/02 10:04:34;;;;;;;4.70;2.63;;;10.80;99.90;;;10.70;100.00;98370.03;5014521;28;20056;-84
2024/01/02 10:07:36;;;;;;;4.40;2.70;;;10.80;99.90;;;10.73;100.00;98356.16;5013616;28;20104;-84
2024/01/02 10:10:14;;;;;;;4.28;2.17;;;10.80;99.90;;;10.73;100.00;98355.38;4997269;28;20046;-84
2024/01/02 10:13:09;;;;;;;3.85;2.45;;;10.90;99.90;;;10.74;100.00;98349.78;5015013;28;20102;-84
2024/01/02 10:15:52;;;;;;;6.05;2.90;;;10.90;99.90;;;10.74;100.00;98351.66;5015160;28;20050;-84
2024/01/02 10:18:31;;;;;;;3.85;2.50;;;10.90;99.90;;;10.74;100.00;98344.47;5002643;28;20034;-84
2024/01/02 10:21:13;;;;;;;3.85;2.40;;;10.90;99.90;;;10.76;100.00;98347.66;5016799;28;20038;-84
2024/01/02 10:23:54;;;;;;;3.25;2.10;;;10.90;99.90;;;10.75;100.00;98346.06;5014776;28;20553;-84
2024/01/02 10:26:25;;;;;;;3.20;1.75;;;10.90;99.90;;;10.74;100.00;98344.47;5016736;28;20053;-86
2024/01/02 10:29:04;;;;;;;3.58;2.00;;;10.90;99.90;;;10.76;100.00;98342.31;5017878;28;20054;-85
2024/01/02 10:31:43;;;;;;;3.40;1.88;;;10.90;99.90;;;10.76;100.00;98331.66;5014253;28;20569;-86
2024/01/02 10:34:26;;;;;;;4.03;1.80;;;10.90;99.90;;;10.78;100.00;98329.53;4996016;28;20050;-86